createdAt,value
2023-05-23T00:04:49.752Z,18.50
2023-05-23T00:09:54.690Z,18.60
2023-05-23T00:14:58.355Z,18.60
2023-05-23T00:20:02.096Z,18.70
2023-05-23T00:25:08.293Z,18.60
2023-05-23T00:30:12.610Z,18.60
2023-05-23T00:35:16.628Z,18.60
2023-05-23T00:40:21.878Z,18.60
2023-05-23T00:45:25.432Z,18.60
2023-05-23T00:50:31.334Z,18.60
2023-05-23T00:55:37.453Z,18.50
2023-05-23T01:00:40.757Z,18.50
2023-05-23T01:05:44.572Z,18.40
2023-05-23T01:10:50.103Z,18.30
2023-05-23T01:16:02.704Z,18.20
2023-05-23T01:21:11.295Z,18.10
2023-05-23T01:26:32.753Z,18.00
2023-05-23T01:31:39.568Z,18.00
2023-05-23T01:36:45.316Z,18.10
2023-05-23T01:41:50.072Z,18.10
2023-05-23T01:46:55.253Z,18.10
2023-05-23T01:52:00.593Z,18.10
2023-05-23T01:57:05.960Z,18.00
2023-05-23T02:02:11.208Z,17.90
2023-05-23T02:07:14.419Z,17.80
2023-05-23T02:12:17.917Z,17.70
2023-05-23T02:17:24.262Z,17.70
2023-05-23T02:22:27.596Z,17.60
2023-05-23T02:27:31.615Z,17.40
2023-05-23T02:32:38.077Z,17.40
2023-05-23T02:37:41.602Z,17.40
2023-05-23T02:42:44.990Z,17.50
2023-05-23T02:47:49.691Z,17.60
2023-05-23T02:52:53.050Z,17.60
2023-05-23T02:57:58.805Z,17.50
2023-05-23T03:03:03.633Z,17.50
2023-05-23T03:08:07.207Z,17.40
2023-05-23T03:13:10.623Z,17.40
2023-05-23T03:18:16.318Z,17.40
2023-05-23T03:23:19.868Z,17.40
2023-05-23T03:28:23.489Z,17.40
2023-05-23T03:33:29.822Z,17.30
2023-05-23T03:38:33.407Z,17.20
2023-05-23T03:43:36.734Z,17.20
2023-05-23T03:48:41.964Z,17.10
2023-05-23T03:53:45.694Z,17.10
2023-05-23T03:58:50.870Z,17.00
2023-05-23T04:03:56.095Z,17.00
2023-05-23T04:09:02.760Z,16.90
2023-05-23T04:14:08.151Z,16.90
2023-05-23T04:19:13.386Z,16.90
2023-05-23T04:24:16.497Z,16.80
2023-05-23T04:29:20.514Z,16.80
2023-05-23T04:34:26.089Z,16.80
2023-05-23T04:39:30.917Z,16.30
2023-05-23T04:44:53.680Z,16.60
2023-05-23T04:50:03.654Z,16.70
2023-05-23T04:55:08.674Z,17.20
2023-05-23T05:00:14.871Z,18.30
2023-05-23T05:05:19.766Z,18.60
2023-05-23T05:10:24.294Z,18.90
2023-05-23T05:15:27.651Z,18.30
2023-05-23T05:20:35.360Z,17.90
2023-05-23T05:25:41.302Z,17.70
2023-05-23T05:30:46.442Z,17.70
2023-05-23T05:35:52.459Z,18.10
2023-05-23T05:40:55.767Z,18.10
2023-05-23T05:46:00.876Z,18.00
2023-05-23T05:51:06.596Z,17.90
2023-05-23T05:56:10.869Z,17.80
2023-05-23T06:01:15.721Z,17.80
2023-05-23T06:06:20.850Z,17.70
2023-05-23T06:11:25.009Z,17.60
2023-05-23T06:16:28.831Z,17.70
2023-05-23T06:21:33.840Z,17.80
2023-05-23T06:26:38.952Z,17.70
2023-05-23T06:31:42.367Z,17.60
2023-05-23T06:36:48.475Z,17.50
2023-05-23T06:41:52.901Z,17.40
2023-05-23T06:46:58.829Z,17.20
2023-05-23T06:52:03.935Z,17.10
2023-05-23T06:57:07.544Z,16.90
2023-05-23T07:02:11.563Z,16.40
2023-05-23T07:07:17.140Z,16.10
2023-05-23T07:12:21.525Z,16.10
2023-05-23T07:17:25.204Z,16.20
2023-05-23T07:22:30.908Z,16.40
2023-05-23T07:27:34.749Z,16.70
2023-05-23T07:32:38.259Z,16.90
2023-05-23T07:37:45.031Z,17.00
2023-05-23T07:42:49.211Z,17.10
2023-05-23T07:47:52.854Z,17.10
2023-05-23T07:52:58.199Z,17.10
2023-05-23T07:58:05.891Z,17.10
2023-05-23T08:03:10.025Z,16.90
2023-05-23T08:08:21.998Z,16.90
2023-05-23T08:13:26.671Z,17.00
2023-05-23T08:18:56.724Z,17.10
2023-05-23T08:24:01.873Z,17.20
2023-05-23T08:29:05.494Z,17.20
2023-05-23T08:34:09.590Z,17.30
2023-05-23T08:39:16.122Z,17.50
2023-05-23T08:44:30.514Z,17.50
2023-05-23T08:49:39.617Z,17.80
2023-05-23T08:54:45.849Z,18.00
2023-05-23T08:59:53.383Z,18.10
2023-05-23T09:05:00.025Z,18.60
2023-05-23T09:10:08.157Z,18.70
2023-05-23T09:15:13.545Z,18.90
2023-05-23T09:20:19.356Z,19.00
2023-05-23T09:25:33.900Z,18.80
2023-05-23T09:30:37.861Z,18.80
2023-05-23T09:35:46.692Z,18.70
2023-05-23T09:40:51.910Z,18.60
2023-05-23T09:45:56.010Z,18.30
2023-05-23T09:51:01.653Z,18.00
2023-05-23T09:56:12.492Z,17.80
2023-05-23T10:01:17.245Z,17.70
2023-05-23T10:06:27.972Z,17.50
2023-05-23T10:12:22.267Z,17.40
2023-05-23T10:17:33.305Z,17.20
2023-05-23T10:22:37.775Z,17.10
2023-05-23T10:27:43.554Z,17.10
2023-05-23T10:32:47.792Z,17.10
2023-05-23T10:37:58.553Z,17.30
2023-05-23T10:43:09.453Z,17.30
2023-05-23T10:48:35.751Z,17.20
2023-05-23T10:53:40.747Z,17.10
2023-05-23T10:58:45.813Z,16.90
2023-05-23T11:03:55.536Z,16.90
2023-05-23T11:09:07.354Z,17.10
2023-05-23T11:14:13.029Z,17.40
2023-05-23T11:19:28.817Z,18.00
2023-05-23T11:24:54.825Z,18.50
2023-05-23T11:30:01.705Z,18.30
2023-05-23T11:35:06.552Z,18.00
2023-05-23T11:40:29.900Z,17.60
2023-05-23T11:45:35.851Z,17.10
2023-05-23T11:50:47.566Z,16.80
2023-05-23T11:55:53.440Z,16.70
2023-05-23T12:01:02.705Z,16.90
2023-05-23T12:06:06.156Z,16.80
2023-05-23T12:11:09.790Z,16.10
2023-05-23T12:16:16.149Z,15.70
2023-05-23T12:21:19.928Z,15.80
2023-05-23T12:26:24.021Z,15.50
2023-05-23T12:31:29.289Z,15.60
2023-05-23T12:36:33.256Z,15.70
2023-05-23T12:41:37.008Z,15.90
2023-05-23T12:46:41.995Z,16.00
2023-05-23T12:51:45.694Z,16.20
2023-05-23T12:56:49.147Z,16.20
2023-05-23T13:01:54.252Z,16.20
2023-05-23T13:06:58.092Z,16.20
2023-05-23T13:12:01.786Z,15.90
2023-05-23T13:17:07.308Z,15.80
2023-05-23T13:22:11.909Z,15.70
2023-05-23T13:27:15.656Z,15.70
2023-05-23T13:32:20.706Z,15.80
2023-05-23T13:37:24.344Z,15.70
2023-05-23T13:42:28.126Z,15.70
2023-05-23T13:47:32.807Z,15.70
2023-05-23T13:52:36.660Z,15.50
2023-05-23T13:57:40.457Z,15.30
2023-05-23T14:02:45.432Z,15.30
2023-05-23T14:07:49.231Z,15.20
2023-05-23T14:12:52.807Z,15.10
2023-05-23T14:17:57.864Z,15.00
2023-05-23T14:23:01.774Z,15.00
2023-05-23T14:28:05.358Z,15.00
2023-05-23T14:33:11.377Z,14.90
2023-05-23T14:38:15.133Z,14.90
2023-05-23T14:43:18.771Z,15.00
2023-05-23T14:48:23.794Z,14.90
2023-05-23T14:53:28.055Z,14.80
2023-05-23T14:58:31.800Z,14.60
2023-05-23T15:03:37.102Z,14.50
2023-05-23T15:08:41.864Z,14.30
2023-05-23T15:13:45.611Z,14.20
2023-05-23T15:18:50.705Z,14.10
2023-05-23T15:23:54.655Z,14.10
2023-05-23T15:28:58.469Z,14.10
2023-05-23T15:34:03.948Z,13.90
2023-05-23T15:39:07.710Z,13.70
2023-05-23T15:44:13.405Z,13.60
2023-05-23T15:49:26.550Z,13.50
2023-05-23T15:54:30.752Z,13.30
2023-05-23T15:59:34.247Z,13.10
2023-05-23T16:04:39.387Z,13.10
2023-05-23T16:09:43.152Z,12.90
2023-05-23T16:14:46.984Z,12.90
2023-05-23T16:19:51.828Z,12.80
2023-05-23T16:24:55.729Z,12.70
2023-05-23T16:29:59.466Z,12.70
2023-05-23T16:35:04.541Z,12.70
2023-05-23T16:40:09.372Z,12.70
2023-05-23T16:45:13.027Z,12.70
2023-05-23T16:50:18.165Z,12.70
2023-05-23T16:55:21.800Z,12.80
2023-05-23T17:00:25.412Z,12.80
2023-05-23T17:05:30.142Z,12.80
2023-05-23T17:10:33.738Z,12.90
2023-05-23T17:15:37.684Z,13.00
2023-05-23T17:20:43.197Z,13.00
2023-05-23T17:25:46.974Z,13.00
2023-05-23T17:30:51.658Z,13.10
2023-05-23T17:35:56.705Z,13.10
2023-05-23T17:41:00.560Z,13.20
2023-05-23T17:46:04.089Z,13.20
2023-05-23T17:51:09.076Z,13.20
2023-05-23T17:56:12.790Z,13.20
2023-05-23T18:01:16.422Z,13.20
2023-05-23T18:06:21.249Z,13.20
2023-05-23T18:11:25.840Z,13.20
2023-05-23T18:16:29.478Z,13.30
2023-05-23T18:21:34.921Z,13.30
2023-05-23T18:26:42.272Z,13.30
2023-05-23T18:31:46.123Z,13.30
2023-05-23T18:36:50.840Z,13.40
2023-05-23T18:41:54.055Z,13.40
2023-05-23T18:46:57.444Z,13.50
2023-05-23T18:52:02.185Z,13.40
2023-05-23T18:57:05.556Z,13.50
2023-05-23T19:02:08.878Z,13.40
2023-05-23T19:07:13.897Z,13.50
2023-05-23T19:12:17.185Z,13.50
2023-05-23T19:17:20.491Z,13.50
2023-05-23T19:22:27.788Z,13.50
2023-05-23T19:27:32.815Z,13.50
2023-05-23T19:32:36.718Z,13.40
2023-05-23T19:37:41.640Z,13.40
2023-05-23T19:42:45.159Z,13.40
2023-05-23T19:47:48.468Z,13.30
2023-05-23T19:52:53.548Z,13.20
2023-05-23T19:57:56.925Z,13.10
2023-05-23T20:03:00.374Z,13.00
2023-05-23T20:08:04.999Z,13.00
2023-05-23T20:13:08.220Z,12.90
2023-05-23T20:18:11.640Z,12.70
2023-05-23T20:23:16.321Z,12.50
2023-05-23T20:28:21.129Z,12.30
2023-05-23T20:33:24.939Z,12.10
2023-05-23T20:38:30.193Z,12.00
2023-05-23T20:43:37.327Z,12.00
2023-05-23T20:48:41.299Z,11.90
2023-05-23T20:53:46.113Z,11.90
2023-05-23T20:58:49.326Z,11.90
2023-05-23T21:03:52.529Z,11.80
2023-05-23T21:08:57.114Z,11.80
2023-05-23T21:14:00.565Z,11.80
2023-05-23T21:19:03.814Z,11.70
2023-05-23T21:24:08.550Z,11.70
2023-05-23T21:29:11.811Z,11.60
2023-05-23T21:34:23.815Z,11.60
2023-05-23T21:39:39.178Z,11.70
2023-05-23T21:44:47.006Z,11.70
2023-05-23T21:49:50.798Z,11.80
2023-05-23T21:54:55.733Z,11.80
2023-05-23T21:59:59.364Z,11.80
2023-05-23T22:05:02.900Z,11.80
2023-05-23T22:10:09.147Z,11.70
2023-05-23T22:15:12.919Z,11.70
2023-05-23T22:20:16.805Z,11.70
2023-05-23T22:25:21.886Z,11.70
2023-05-23T22:30:25.108Z,11.70
2023-05-23T22:35:28.378Z,11.70
2023-05-23T22:40:33.032Z,11.60
2023-05-23T22:45:40.632Z,11.50
2023-05-23T22:50:44.530Z,11.40
2023-05-23T22:55:49.924Z,11.20
2023-05-23T23:00:53.207Z,11.10
2023-05-23T23:05:57.490Z,10.90
2023-05-23T23:11:02.150Z,10.70
2023-05-23T23:16:06.770Z,10.60
2023-05-23T23:21:10.330Z,10.40
2023-05-23T23:26:15.236Z,10.40
2023-05-23T23:31:18.670Z,10.30
2023-05-23T23:36:22.371Z,10.20
2023-05-23T23:41:27.594Z,10.10
2023-05-23T23:46:31.243Z,10.10
2023-05-23T23:51:34.856Z,10.00
2023-05-23T23:56:39.938Z,9.90
